<?xml version="1.0" encoding="UTF-8" standalone="no" ?>
<gpx xmlns="http://www.topografix.com/GPX/1/1" xmlns:xsi="http://www.w3.org/2001/XMLSchema-instance" xsi:schemaLocation="http://www.topografix.com/GPX/1/1 http://www.topografix.com/GPX/1/1/gpx.xsd" version="1.1" creator="VisuGPX - https://www.visugpx.com">
  <metadata>
    <name>Redon_Chateaulin</name>
    <desc><![CDATA[Randonnée cyclotouriste de Redon à Châteaulin par le chemin de halage du canal de Nantes à Brest avec quelques échappées vers Rostrenen, Carhaix et Pleyben.]]></desc>
  </metadata>
  <trk>
    <name><![CDATA[ACTIVE LOG 014]]></name>
    <trkseg>
      <trkpt lat="48.17096" lon="-3.7769">
        <ele>43.877319335938</ele>
        <time>2012-04-19T10:44:01Z</time>
      </trkpt>
      <trkpt lat="48.17089" lon="-3.77709">
        <ele>35.7060546875</ele>
        <time>2012-04-19T10:44:06Z</time>
      </trkpt>
      <trkpt lat="48.17072" lon="-3.77804">
        <ele>34.26416015625</ele>
        <time>2012-04-19T10:44:25Z</time>
      </trkpt>
      <trkpt lat="48.17081" lon="-3.77885">
        <ele>35.7060546875</ele>
        <time>2012-04-19T10:44:40Z</time>
      </trkpt>
      <trkpt lat="48.17091" lon="-3.77905">
        <ele>34.744873046875</ele>
        <time>2012-04-19T10:44:44Z</time>
      </trkpt>
      <trkpt lat="48.17101" lon="-3.77912">
        <ele>34.744873046875</ele>
        <time>2012-04-19T10:44:48Z</time>
      </trkpt>
      <trkpt lat="48.17146" lon="-3.77907">
        <ele>35.225463867188</ele>
        <time>2012-04-19T10:45:01Z</time>
      </trkpt>
      <trkpt lat="48.17176" lon="-3.77895">
        <ele>33.783447265625</ele>
        <time>2012-04-19T10:45:13Z</time>
      </trkpt>
      <trkpt lat="48.17176" lon="-3.77895">
        <ele>34.744873046875</ele>
        <time>2012-04-19T10:45:35Z</time>
      </trkpt>
      <trkpt lat="48.17195" lon="-3.77886">
        <ele>31.860717773438</ele>
        <time>2012-04-19T10:46:10Z</time>
      </trkpt>
      <trkpt lat="48.17244" lon="-3.77862">
        <ele>29.938110351562</ele>
        <time>2012-04-19T10:46:27Z</time>
      </trkpt>
      <trkpt lat="48.17297" lon="-3.77854">
        <ele>32.341552734375</ele>
        <time>2012-04-19T10:46:42Z</time>
      </trkpt>
      <trkpt lat="48.17372" lon="-3.77859">
        <ele>31.860717773438</ele>
        <time>2012-04-19T10:47:02Z</time>
      </trkpt>
      <trkpt lat="48.17431" lon="-3.77866">
        <ele>31.860717773438</ele>
        <time>2012-04-19T10:47:19Z</time>
      </trkpt>
      <trkpt lat="48.1749" lon="-3.77873">
        <ele>31.380126953125</ele>
        <time>2012-04-19T10:47:36Z</time>
      </trkpt>
      <trkpt lat="48.17564" lon="-3.77881">
        <ele>34.744873046875</ele>
        <time>2012-04-19T10:47:56Z</time>
      </trkpt>
      <trkpt lat="48.17658" lon="-3.77895">
        <ele>35.7060546875</ele>
        <time>2012-04-19T10:48:20Z</time>
      </trkpt>
      <trkpt lat="48.17728" lon="-3.77917">
        <ele>34.26416015625</ele>
        <time>2012-04-19T10:48:43Z</time>
      </trkpt>
      <trkpt lat="48.17802" lon="-3.77939">
        <ele>34.744873046875</ele>
        <time>2012-04-19T10:48:59Z</time>
      </trkpt>
      <trkpt lat="48.17866" lon="-3.77958">
        <ele>35.7060546875</ele>
        <time>2012-04-19T10:49:17Z</time>
      </trkpt>
      <trkpt lat="48.17923" lon="-3.77978">
        <ele>34.26416015625</ele>
        <time>2012-04-19T10:49:34Z</time>
      </trkpt>
      <trkpt lat="48.17984" lon="-3.78012">
        <ele>36.186767578125</ele>
        <time>2012-04-19T10:49:52Z</time>
      </trkpt>
      <trkpt lat="48.18045" lon="-3.7807">
        <ele>37.148071289062</ele>
        <time>2012-04-19T10:50:13Z</time>
      </trkpt>
      <trkpt lat="48.18115" lon="-3.78143">
        <ele>39.55126953125</ele>
        <time>2012-04-19T10:50:36Z</time>
      </trkpt>
      <trkpt lat="48.1818" lon="-3.78233">
        <ele>39.070678710938</ele>
        <time>2012-04-19T10:50:59Z</time>
      </trkpt>
      <trkpt lat="48.18215" lon="-3.78305">
        <ele>39.070678710938</ele>
        <time>2012-04-19T10:51:16Z</time>
      </trkpt>
      <trkpt lat="48.18236" lon="-3.78376">
        <ele>37.148071289062</ele>
        <time>2012-04-19T10:51:32Z</time>
      </trkpt>
      <trkpt lat="48.18243" lon="-3.78464">
        <ele>36.66748046875</ele>
        <time>2012-04-19T10:51:51Z</time>
      </trkpt>
      <trkpt lat="48.18243" lon="-3.78553">
        <ele>36.66748046875</ele>
        <time>2012-04-19T10:52:10Z</time>
      </trkpt>
      <trkpt lat="48.1824" lon="-3.78641">
        <ele>35.7060546875</ele>
        <time>2012-04-19T10:52:31Z</time>
      </trkpt>
      <trkpt lat="48.18234" lon="-3.78681">
        <ele>34.744873046875</ele>
        <time>2012-04-19T10:52:46Z</time>
      </trkpt>
      <trkpt lat="48.18234" lon="-3.78681">
        <ele>34.26416015625</ele>
        <time>2012-04-19T10:53:30Z</time>
      </trkpt>
      <trkpt lat="48.18234" lon="-3.78681">
        <ele>33.783447265625</ele>
        <time>2012-04-19T10:54:08Z</time>
      </trkpt>
      <trkpt lat="48.18234" lon="-3.78681">
        <ele>33.783447265625</ele>
        <time>2012-04-19T10:54:26Z</time>
      </trkpt>
    </trkseg>
  </trk>
</gpx>